sensor_id;sensor_type;location;lat;lon;timestamp;P1;durP1;ratioP1;P2;durP2;ratioP2
23171;SDS011;11754;42.664;23.594;2022-11-30T00:00:03;3.85;;;1.92;;
23171;SDS011;11754;42.664;23.594;2022-11-30T00:02:29;3.75;;;1.98;;
23171;SDS011;11754;42.664;23.594;2022-11-30T00:04:54;3.60;;;1.92;;
23171;SDS011;11754;42.664;23.594;2022-11-30T00:07:19;6.45;;;2.20;;
23171;SDS011;11754;42.664;23.594;2022-11-30T00:09:45;7.50;;;2.67;;
23171;SDS011;11754;42.664;23.594;2022-11-30T00:12:10;6.82;;;2.58;;
23171;SDS011;11754;42.664;23.594;2022-11-30T00:14:35;8.73;;;2.45;;
23171;SDS011;11754;42.664;23.594;2022-11-30T00:17:01;4.88;;;2.28;;
23171;SDS011;11754;42.664;23.594;2022-11-30T00:19:26;3.92;;;1.83;;
23171;SDS011;11754;42.664;23.594;2022-11-30T00:21:52;3.22;;;1.45;;
23171;SDS011;11754;42.664;23.594;2022-11-30T00:24:17;1.75;;;0.90;;
23171;SDS011;11754;42.664;23.594;2022-11-30T00:26:42;2.97;;;1.20;;
23171;SDS011;11754;42.664;23.594;2022-11-30T00:29:08;1.55;;;1.10;;
23171;SDS011;11754;42.664;23.594;2022-11-30T00:31:33;2.92;;;1.30;;
23171;SDS011;11754;42.664;23.594;2022-11-30T00:33:58;2.13;;;1.20;;
23171;SDS011;11754;42.664;23.594;2022-11-30T00:36:24;2.60;;;1.60;;
23171;SDS011;11754;42.664;23.594;2022-11-30T00:38:50;3.78;;;1.77;;
23171;SDS011;11754;42.664;23.594;2022-11-30T00:41:16;4.40;;;1.95;;
23171;SDS011;11754;42.664;23.594;2022-11-30T00:43:43;3.28;;;1.73;;
23171;SDS011;11754;42.664;23.594;2022-11-30T00:46:09;3.15;;;1.40;;
23171;SDS011;11754;42.664;23.594;2022-11-30T00:48:35;3.30;;;1.77;;
23171;SDS011;11754;42.664;23.594;2022-11-30T00:51:05;4.53;;;2.00;;
23171;SDS011;11754;42.664;23.594;2022-11-30T00:53:33;6.35;;;2.40;;
23171;SDS011;11754;42.664;23.594;2022-11-30T00:55:59;10.05;;;4.35;;
23171;SDS011;11754;42.664;23.594;2022-11-30T00:58:24;6.15;;;2.67;;
23171;SDS011;11754;42.664;23.594;2022-11-30T01:00:49;5.78;;;2.38;;
23171;SDS011;11754;42.664;23.594;2022-11-30T01:03:15;3.90;;;1.98;;
23171;SDS011;11754;42.664;23.594;2022-11-30T01:05:41;2.47;;;1.50;;
23171;SDS011;11754;42.664;23.594;2022-11-30T01:08:07;2.60;;;1.10;;
23171;SDS011;11754;42.664;23.594;2022-11-30T01:10:35;2.92;;;1.27;;
23171;SDS011;11754;42.664;23.594;2022-11-30T01:13:02;3.17;;;1.38;;
23171;SDS011;11754;42.664;23.594;2022-11-30T01:15:28;3.50;;;1.35;;
23171;SDS011;11754;42.664;23.594;2022-11-30T01:17:54;2.20;;;1.33;;
23171;SDS011;11754;42.664;23.594;2022-11-30T01:20:19;3.80;;;1.52;;
23171;SDS011;11754;42.664;23.594;2022-11-30T01:22:45;3.80;;;1.55;;
23171;SDS011;11754;42.664;23.594;2022-11-30T01:25:10;4.25;;;1.48;;
23171;SDS011;11754;42.664;23.594;2022-11-30T01:27:35;3.78;;;1.05;;
23171;SDS011;11754;42.664;23.594;2022-11-30T01:30:01;3.75;;;1.08;;
23171;SDS011;11754;42.664;23.594;2022-11-30T01:32:26;2.72;;;1.13;;
23171;SDS011;11754;42.664;23.594;2022-11-30T01:34:52;2.22;;;0.93;;
23171;SDS011;11754;42.664;23.594;2022-11-30T01:37:17;1.90;;;1.10;;
23171;SDS011;11754;42.664;23.594;2022-11-30T01:39:42;1.67;;;1.00;;
23171;SDS011;11754;42.664;23.594;2022-11-30T01:42:15;3.67;;;1.30;;
23171;SDS011;11754;42.664;23.594;2022-11-30T01:47:18;3.15;;;1.05;;
23171;SDS011;11754;42.664;23.594;2022-11-30T01:49:47;2.25;;;1.00;;
23171;SDS011;11754;42.664;23.594;2022-11-30T01:52:24;1.80;;;0.95;;
23171;SDS011;11754;42.664;23.594;2022-11-30T01:59:51;1.50;;;0.80;;
23171;SDS011;11754;42.664;23.594;2022-11-30T02:02:19;1.58;;;0.77;;
23171;SDS011;11754;42.664;23.594;2022-11-30T02:04:51;1.40;;;0.80;;
23171;SDS011;11754;42.664;23.594;2022-11-30T02:07:16;2.08;;;0.73;;
23171;SDS011;11754;42.664;23.594;2022-11-30T02:09:42;1.40;;;0.80;;
23171;SDS011;11754;42.664;23.594;2022-11-30T02:12:10;1.27;;;0.75;;
23171;SDS011;11754;42.664;23.594;2022-11-30T02:15:07;1.35;;;0.82;;
23171;SDS011;11754;42.664;23.594;2022-11-30T02:20:38;4.17;;;1.20;;
23171;SDS011;11754;42.664;23.594;2022-11-30T02:31:25;3.78;;;1.80;;
23171;SDS011;11754;42.664;23.594;2022-11-30T02:33:58;3.97;;;2.10;;
23171;SDS011;11754;42.664;23.594;2022-11-30T02:36:25;4.43;;;2.30;;
23171;SDS011;11754;42.664;23.594;2022-11-30T02:38:52;3.25;;;1.90;;
23171;SDS011;11754;42.664;23.594;2022-11-30T02:41:18;2.55;;;1.27;;
23171;SDS011;11754;42.664;23.594;2022-11-30T02:43:43;2.38;;;1.27;;
23171;SDS011;11754;42.664;23.594;2022-11-30T02:48:46;1.48;;;0.90;;
23171;SDS011;11754;42.664;23.594;2022-11-30T02:51:17;2.10;;;1.20;;
23171;SDS011;11754;42.664;23.594;2022-11-30T02:53:46;1.90;;;1.33;;
23171;SDS011;11754;42.664;23.594;2022-11-30T02:56:12;1.75;;;1.10;;
23171;SDS011;11754;42.664;23.594;2022-11-30T02:58:38;1.63;;;1.00;;
23171;SDS011;11754;42.664;23.594;2022-11-30T03:01:04;2.20;;;1.40;;
23171;SDS011;11754;42.664;23.594;2022-11-30T03:03:29;3.50;;;2.70;;
23171;SDS011;11754;42.664;23.594;2022-11-30T03:05:55;2.60;;;1.45;;
23171;SDS011;11754;42.664;23.594;2022-11-30T03:08:20;2.58;;;1.55;;
23171;SDS011;11754;42.664;23.594;2022-11-30T03:10:45;2.75;;;1.80;;
23171;SDS011;11754;42.664;23.594;2022-11-30T03:13:11;3.92;;;2.55;;
23171;SDS011;11754;42.664;23.594;2022-11-30T03:15:36;3.28;;;2.20;;
23171;SDS011;11754;42.664;23.594;2022-11-30T03:18:02;11.02;;;8.23;;
23171;SDS011;11754;42.664;23.594;2022-11-30T03:20:28;4.88;;;3.20;;
23171;SDS011;11754;42.664;23.594;2022-11-30T03:22:53;1.83;;;1.20;;
23171;SDS011;11754;42.664;23.594;2022-11-30T03:25:19;9.45;;;4.15;;
23171;SDS011;11754;42.664;23.594;2022-11-30T03:27:44;10.10;;;4.10;;
23171;SDS011;11754;42.664;23.594;2022-11-30T03:30:09;6.72;;;2.95;;
23171;SDS011;11754;42.664;23.594;2022-11-30T03:32:35;15.13;;;6.38;;
23171;SDS011;11754;42.664;23.594;2022-11-30T03:35:00;9.68;;;4.38;;
23171;SDS011;11754;42.664;23.594;2022-11-30T03:37:26;10.13;;;4.50;;
23171;SDS011;11754;42.664;23.594;2022-11-30T03:39:51;9.25;;;4.15;;
23171;SDS011;11754;42.664;23.594;2022-11-30T03:42:17;7.38;;;4.25;;
23171;SDS011;11754;42.664;23.594;2022-11-30T03:44:42;2.65;;;1.40;;
23171;SDS011;11754;42.664;23.594;2022-11-30T03:47:07;2.35;;;1.50;;
23171;SDS011;11754;42.664;23.594;2022-11-30T03:49:33;3.88;;;2.35;;
23171;SDS011;11754;42.664;23.594;2022-11-30T03:51:58;3.35;;;1.40;;
23171;SDS011;11754;42.664;23.594;2022-11-30T03:54:23;2.30;;;1.40;;
23171;SDS011;11754;42.664;23.594;2022-11-30T03:56:49;1.45;;;0.98;;
23171;SDS011;11754;42.664;23.594;2022-11-30T03:59:14;3.53;;;1.48;;
23171;SDS011;11754;42.664;23.594;2022-11-30T04:01:40;1.75;;;0.90;;
23171;SDS011;11754;42.664;23.594;2022-11-30T04:04:05;1.67;;;0.93;;
23171;SDS011;11754;42.664;23.594;2022-11-30T04:06:31;1.65;;;1.20;;
23171;SDS011;11754;42.664;23.594;2022-11-30T04:08:57;3.97;;;2.28;;
23171;SDS011;11754;42.664;23.594;2022-11-30T04:11:22;6.00;;;4.32;;
23171;SDS011;11754;42.664;23.594;2022-11-30T04:13:48;7.18;;;4.60;;
23171;SDS011;11754;42.664;23.594;2022-11-30T04:16:13;13.75;;;7.30;;
23171;SDS011;11754;42.664;23.594;2022-11-30T04:18:38;6.45;;;3.92;;
23171;SDS011;11754;42.664;23.594;2022-11-30T04:21:04;4.43;;;2.47;;
23171;SDS011;11754;42.664;23.594;2022-11-30T04:23:32;6.57;;;3.78;;
23171;SDS011;11754;42.664;23.594;2022-11-30T04:26:02;6.13;;;3.55;;
23171;SDS011;11754;42.664;23.594;2022-11-30T04:28:32;13.70;;;7.82;;
23171;SDS011;11754;42.664;23.594;2022-11-30T04:30:57;2.00;;;1.13;;
23171;SDS011;11754;42.664;23.594;2022-11-30T04:33:25;8.25;;;3.65;;
23171;SDS011;11754;42.664;23.594;2022-11-30T04:35:53;10.02;;;4.25;;
23171;SDS011;11754;42.664;23.594;2022-11-30T04:38:20;7.53;;;3.35;;
23171;SDS011;11754;42.664;23.594;2022-11-30T04:40:46;6.80;;;2.92;;
23171;SDS011;11754;42.664;23.594;2022-11-30T04:43:12;6.55;;;3.30;;
23171;SDS011;11754;42.664;23.594;2022-11-30T04:45:37;6.15;;;3.63;;
23171;SDS011;11754;42.664;23.594;2022-11-30T04:48:03;8.43;;;4.82;;
23171;SDS011;11754;42.664;23.594;2022-11-30T04:50:30;4.70;;;3.40;;
23171;SDS011;11754;42.664;23.594;2022-11-30T04:52:55;7.68;;;3.13;;
23171;SDS011;11754;42.664;23.594;2022-11-30T04:55:21;4.95;;;3.00;;
23171;SDS011;11754;42.664;23.594;2022-11-30T04:57:47;6.15;;;2.88;;
23171;SDS011;11754;42.664;23.594;2022-11-30T05:00:13;5.15;;;2.60;;
23171;SDS011;11754;42.664;23.594;2022-11-30T05:02:40;4.80;;;1.77;;
23171;SDS011;11754;42.664;23.594;2022-11-30T05:05:06;3.20;;;1.48;;
23171;SDS011;11754;42.664;23.594;2022-11-30T05:07:32;2.80;;;1.27;;
23171;SDS011;11754;42.664;23.594;2022-11-30T05:09:57;9.60;;;4.80;;
23171;SDS011;11754;42.664;23.594;2022-11-30T05:12:22;5.70;;;3.22;;
23171;SDS011;11754;42.664;23.594;2022-11-30T05:14:48;8.80;;;4.63;;
23171;SDS011;11754;42.664;23.594;2022-11-30T05:17:13;13.38;;;6.55;;
23171;SDS011;11754;42.664;23.594;2022-11-30T05:19:39;11.00;;;6.32;;
23171;SDS011;11754;42.664;23.594;2022-11-30T05:22:04;13.38;;;7.60;;
23171;SDS011;11754;42.664;23.594;2022-11-30T05:24:30;6.13;;;2.83;;
23171;SDS011;11754;42.664;23.594;2022-11-30T05:26:55;5.03;;;3.10;;
23171;SDS011;11754;42.664;23.594;2022-11-30T05:29:20;6.57;;;4.22;;
23171;SDS011;11754;42.664;23.594;2022-11-30T05:31:46;4.82;;;2.60;;
23171;SDS011;11754;42.664;23.594;2022-11-30T05:34:11;2.97;;;1.73;;
23171;SDS011;11754;42.664;23.594;2022-11-30T05:36:37;2.30;;;1.30;;
23171;SDS011;11754;42.664;23.594;2022-11-30T05:39:02;2.95;;;1.90;;
23171;SDS011;11754;42.664;23.594;2022-11-30T05:41:27;8.52;;;5.00;;
23171;SDS011;11754;42.664;23.594;2022-11-30T05:43:53;4.60;;;2.83;;
23171;SDS011;11754;42.664;23.594;2022-11-30T05:46:18;3.63;;;1.63;;
23171;SDS011;11754;42.664;23.594;2022-11-30T05:48:43;4.38;;;2.10;;
23171;SDS011;11754;42.664;23.594;2022-11-30T05:51:10;12.30;;;6.70;;
23171;SDS011;11754;42.664;23.594;2022-11-30T05:53:40;11.30;;;6.47;;
23171;SDS011;11754;42.664;23.594;2022-11-30T05:56:08;5.38;;;3.33;;
23171;SDS011;11754;42.664;23.594;2022-11-30T05:58:35;8.20;;;6.25;;
23171;SDS011;11754;42.664;23.594;2022-11-30T06:01:00;9.77;;;7.00;;
23171;SDS011;11754;42.664;23.594;2022-11-30T06:03:27;5.78;;;3.22;;
23171;SDS011;11754;42.664;23.594;2022-11-30T06:05:54;4.05;;;2.15;;
23171;SDS011;11754;42.664;23.594;2022-11-30T06:08:19;5.05;;;2.70;;
23171;SDS011;11754;42.664;23.594;2022-11-30T06:10:45;6.47;;;3.65;;
23171;SDS011;11754;42.664;23.594;2022-11-30T06:13:14;11.43;;;6.15;;
23171;SDS011;11754;42.664;23.594;2022-11-30T06:15:39;15.57;;;8.00;;
23171;SDS011;11754;42.664;23.594;2022-11-30T06:18:06;10.15;;;3.90;;
23171;SDS011;11754;42.664;23.594;2022-11-30T06:20:32;5.13;;;3.13;;
23171;SDS011;11754;42.664;23.594;2022-11-30T06:22:57;4.03;;;2.38;;
23171;SDS011;11754;42.664;23.594;2022-11-30T06:25:24;10.27;;;5.18;;
23171;SDS011;11754;42.664;23.594;2022-11-30T06:27:50;8.60;;;4.55;;
23171;SDS011;11754;42.664;23.594;2022-11-30T06:30:15;7.25;;;3.90;;
23171;SDS011;11754;42.664;23.594;2022-11-30T06:32:48;6.85;;;3.72;;
23171;SDS011;11754;42.664;23.594;2022-11-30T06:35:15;5.65;;;3.20;;
23171;SDS011;11754;42.664;23.594;2022-11-30T06:37:41;5.68;;;3.78;;
23171;SDS011;11754;42.664;23.594;2022-11-30T06:40:07;11.43;;;4.78;;
23171;SDS011;11754;42.664;23.594;2022-11-30T06:42:34;8.63;;;4.53;;
23171;SDS011;11754;42.664;23.594;2022-11-30T06:45:01;6.38;;;3.60;;
23171;SDS011;11754;42.664;23.594;2022-11-30T06:47:26;4.68;;;2.85;;
23171;SDS011;11754;42.664;23.594;2022-11-30T06:49:52;6.57;;;3.05;;
23171;SDS011;11754;42.664;23.594;2022-11-30T06:52:18;23.40;;;12.27;;
23171;SDS011;11754;42.664;23.594;2022-11-30T06:54:43;9.20;;;5.40;;
23171;SDS011;11754;42.664;23.594;2022-11-30T06:57:09;8.68;;;4.55;;
23171;SDS011;11754;42.664;23.594;2022-11-30T06:59:34;8.40;;;3.97;;
23171;SDS011;11754;42.664;23.594;2022-11-30T07:02:01;8.77;;;4.95;;
23171;SDS011;11754;42.664;23.594;2022-11-30T07:04:27;13.43;;;6.90;;
23171;SDS011;11754;42.664;23.594;2022-11-30T07:06:53;10.40;;;4.57;;
23171;SDS011;11754;42.664;23.594;2022-11-30T07:09:18;10.20;;;5.15;;
23171;SDS011;11754;42.664;23.594;2022-11-30T07:11:43;7.55;;;4.38;;
23171;SDS011;11754;42.664;23.594;2022-11-30T07:14:09;5.47;;;3.40;;
23171;SDS011;11754;42.664;23.594;2022-11-30T07:16:34;9.70;;;3.63;;
23171;SDS011;11754;42.664;23.594;2022-11-30T07:18:59;5.80;;;3.90;;
23171;SDS011;11754;42.664;23.594;2022-11-30T07:21:25;6.65;;;3.92;;
23171;SDS011;11754;42.664;23.594;2022-11-30T07:23:50;4.70;;;2.97;;
23171;SDS011;11754;42.664;23.594;2022-11-30T07:26:48;7.25;;;3.42;;
23171;SDS011;11754;42.664;23.594;2022-11-30T07:29:13;7.38;;;4.00;;
23171;SDS011;11754;42.664;23.594;2022-11-30T07:31:38;9.27;;;3.50;;
23171;SDS011;11754;42.664;23.594;2022-11-30T07:34:05;16.02;;;6.80;;
23171;SDS011;11754;42.664;23.594;2022-11-30T07:36:31;10.45;;;5.10;;
23171;SDS011;11754;42.664;23.594;2022-11-30T07:38:57;13.10;;;5.13;;
23171;SDS011;11754;42.664;23.594;2022-11-30T07:41:22;9.43;;;5.10;;
23171;SDS011;11754;42.664;23.594;2022-11-30T07:43:48;6.22;;;4.60;;
23171;SDS011;11754;42.664;23.594;2022-11-30T07:46:14;7.97;;;4.65;;
23171;SDS011;11754;42.664;23.594;2022-11-30T07:48:40;7.22;;;4.20;;
23171;SDS011;11754;42.664;23.594;2022-11-30T07:51:08;4.07;;;2.47;;
23171;SDS011;11754;42.664;23.594;2022-11-30T07:53:37;4.15;;;2.47;;
23171;SDS011;11754;42.664;23.594;2022-11-30T07:56:03;9.55;;;4.75;;
23171;SDS011;11754;42.664;23.594;2022-11-30T07:58:30;6.93;;;4.47;;
23171;SDS011;11754;42.664;23.594;2022-11-30T08:00:59;10.75;;;5.28;;
23171;SDS011;11754;42.664;23.594;2022-11-30T08:03:30;8.32;;;3.88;;
23171;SDS011;11754;42.664;23.594;2022-11-30T08:05:59;6.38;;;3.67;;
23171;SDS011;11754;42.664;23.594;2022-11-30T08:08:30;5.50;;;3.47;;
23171;SDS011;11754;42.664;23.594;2022-11-30T08:10:56;6.10;;;3.17;;
23171;SDS011;11754;42.664;23.594;2022-11-30T08:13:22;6.07;;;2.95;;
23171;SDS011;11754;42.664;23.594;2022-11-30T08:15:49;6.82;;;3.00;;
23171;SDS011;11754;42.664;23.594;2022-11-30T08:18:14;6.15;;;2.78;;
23171;SDS011;11754;42.664;23.594;2022-11-30T08:20:40;4.20;;;2.30;;
23171;SDS011;11754;42.664;23.594;2022-11-30T08:23:05;3.42;;;2.05;;
23171;SDS011;11754;42.664;23.594;2022-11-30T08:25:30;4.20;;;2.53;;
23171;SDS011;11754;42.664;23.594;2022-11-30T08:27:57;5.82;;;3.25;;
23171;SDS011;11754;42.664;23.594;2022-11-30T08:30:23;8.15;;;3.53;;
23171;SDS011;11754;42.664;23.594;2022-11-30T08:32:48;8.18;;;3.92;;
23171;SDS011;11754;42.664;23.594;2022-11-30T08:35:13;7.72;;;3.83;;
23171;SDS011;11754;42.664;23.594;2022-11-30T08:37:39;3.85;;;3.08;;
23171;SDS011;11754;42.664;23.594;2022-11-30T08:40:04;5.85;;;3.10;;
23171;SDS011;11754;42.664;23.594;2022-11-30T08:42:30;7.15;;;3.33;;
23171;SDS011;11754;42.664;23.594;2022-11-30T08:44:55;6.63;;;3.78;;
23171;SDS011;11754;42.664;23.594;2022-11-30T08:47:21;6.38;;;4.13;;
23171;SDS011;11754;42.664;23.594;2022-11-30T08:49:46;7.05;;;3.40;;
23171;SDS011;11754;42.664;23.594;2022-11-30T08:52:12;7.57;;;4.57;;
23171;SDS011;11754;42.664;23.594;2022-11-30T08:54:37;10.18;;;5.93;;
23171;SDS011;11754;42.664;23.594;2022-11-30T08:57:06;8.68;;;5.55;;
23171;SDS011;11754;42.664;23.594;2022-11-30T08:59:31;15.23;;;8.65;;
23171;SDS011;11754;42.664;23.594;2022-11-30T09:01:56;10.85;;;5.70;;
23171;SDS011;11754;42.664;23.594;2022-11-30T09:04:22;6.38;;;2.65;;
23171;SDS011;11754;42.664;23.594;2022-11-30T09:06:47;33.88;;;16.23;;
23171;SDS011;11754;42.664;23.594;2022-11-30T09:09:12;9.30;;;5.22;;
23171;SDS011;11754;42.664;23.594;2022-11-30T09:11:38;6.63;;;3.72;;
23171;SDS011;11754;42.664;23.594;2022-11-30T09:14:03;7.32;;;3.42;;
23171;SDS011;11754;42.664;23.594;2022-11-30T09:16:29;5.35;;;2.97;;
23171;SDS011;11754;42.664;23.594;2022-11-30T09:18:55;4.20;;;2.25;;
23171;SDS011;11754;42.664;23.594;2022-11-30T09:21:21;5.00;;;2.58;;
23171;SDS011;11754;42.664;23.594;2022-11-30T09:23:48;4.70;;;2.75;;
23171;SDS011;11754;42.664;23.594;2022-11-30T09:26:16;6.80;;;3.30;;
23171;SDS011;11754;42.664;23.594;2022-11-30T09:28:43;10.02;;;5.55;;
23171;SDS011;11754;42.664;23.594;2022-11-30T09:31:10;11.25;;;5.88;;
23171;SDS011;11754;42.664;23.594;2022-11-30T09:33:38;10.73;;;5.00;;
23171;SDS011;11754;42.664;23.594;2022-11-30T09:36:05;9.02;;;3.13;;
23171;SDS011;11754;42.664;23.594;2022-11-30T09:38:32;5.85;;;2.97;;
23171;SDS011;11754;42.664;23.594;2022-11-30T09:40:58;4.35;;;2.88;;
23171;SDS011;11754;42.664;23.594;2022-11-30T09:46:27;5.22;;;2.15;;
23171;SDS011;11754;42.664;23.594;2022-11-30T09:49:01;4.60;;;2.90;;
23171;SDS011;11754;42.664;23.594;2022-11-30T09:54:24;19.10;;;8.02;;
23171;SDS011;11754;42.664;23.594;2022-11-30T09:59:46;20.13;;;7.90;;
23171;SDS011;11754;42.664;23.594;2022-11-30T10:02:17;7.50;;;3.85;;
23171;SDS011;11754;42.664;23.594;2022-11-30T10:04:43;5.35;;;2.53;;
23171;SDS011;11754;42.664;23.594;2022-11-30T10:07:12;3.38;;;1.48;;
23171;SDS011;11754;42.664;23.594;2022-11-30T10:10:06;6.05;;;2.92;;
23171;SDS011;11754;42.664;23.594;2022-11-30T10:12:43;5.60;;;2.63;;
23171;SDS011;11754;42.664;23.594;2022-11-30T10:26:04;5.15;;;3.00;;
23171;SDS011;11754;42.664;23.594;2022-11-30T10:31:27;4.35;;;2.42;;
23171;SDS011;11754;42.664;23.594;2022-11-30T10:33:57;7.07;;;3.60;;
23171;SDS011;11754;42.664;23.594;2022-11-30T10:36:40;5.65;;;2.85;;
23171;SDS011;11754;42.664;23.594;2022-11-30T10:39:21;7.80;;;4.88;;
23171;SDS011;11754;42.664;23.594;2022-11-30T10:42:03;6.20;;;3.10;;
23171;SDS011;11754;42.664;23.594;2022-11-30T10:44:37;8.30;;;4.13;;
23171;SDS011;11754;42.664;23.594;2022-11-30T10:47:12;7.88;;;3.60;;
23171;SDS011;11754;42.664;23.594;2022-11-30T10:49:44;15.05;;;6.28;;
23171;SDS011;11754;42.664;23.594;2022-11-30T10:52:12;22.00;;;12.23;;
23171;SDS011;11754;42.664;23.594;2022-11-30T10:54:43;10.40;;;6.37;;
23171;SDS011;11754;42.664;23.594;2022-11-30T10:57:09;7.18;;;4.47;;
23171;SDS011;11754;42.664;23.594;2022-11-30T10:59:39;11.75;;;3.50;;
23171;SDS011;11754;42.664;23.594;2022-11-30T11:05:20;6.03;;;3.92;;
23171;SDS011;11754;42.664;23.594;2022-11-30T11:13:04;12.52;;;7.88;;
23171;SDS011;11754;42.664;23.594;2022-11-30T11:15:30;21.10;;;11.57;;
23171;SDS011;11754;42.664;23.594;2022-11-30T11:20:46;15.90;;;8.55;;
23171;SDS011;11754;42.664;23.594;2022-11-30T11:23:23;13.68;;;7.50;;
23171;SDS011;11754;42.664;23.594;2022-11-30T11:28:51;12.43;;;7.05;;
23171;SDS011;11754;42.664;23.594;2022-11-30T11:34:05;7.68;;;4.93;;
23171;SDS011;11754;42.664;23.594;2022-11-30T11:36:51;5.38;;;3.40;;
23171;SDS011;11754;42.664;23.594;2022-11-30T11:39:28;4.97;;;3.40;;
23171;SDS011;11754;42.664;23.594;2022-11-30T11:41:54;9.50;;;4.30;;
23171;SDS011;11754;42.664;23.594;2022-11-30T11:44:19;6.47;;;3.70;;
23171;SDS011;11754;42.664;23.594;2022-11-30T11:47:02;10.63;;;5.68;;
23171;SDS011;11754;42.664;23.594;2022-11-30T11:49:36;11.82;;;6.28;;
23171;SDS011;11754;42.664;23.594;2022-11-30T11:52:03;13.48;;;5.28;;
23171;SDS011;11754;42.664;23.594;2022-11-30T11:57:09;8.38;;;4.65;;
23171;SDS011;11754;42.664;23.594;2022-11-30T11:59:47;8.10;;;4.25;;
23171;SDS011;11754;42.664;23.594;2022-11-30T12:02:33;10.25;;;5.35;;
23171;SDS011;11754;42.664;23.594;2022-11-30T12:13:04;7.53;;;4.68;;
23171;SDS011;11754;42.664;23.594;2022-11-30T12:15:39;9.88;;;5.32;;
23171;SDS011;11754;42.664;23.594;2022-11-30T12:18:20;10.90;;;6.22;;
23171;SDS011;11754;42.664;23.594;2022-11-30T12:20:59;12.43;;;8.23;;
23171;SDS011;11754;42.664;23.594;2022-11-30T12:45:47;17.00;;;9.35;;
23171;SDS011;11754;42.664;23.594;2022-11-30T12:51:06;16.17;;;9.05;;
23171;SDS011;11754;42.664;23.594;2022-11-30T12:53:43;17.33;;;13.02;;
23171;SDS011;11754;42.664;23.594;2022-11-30T13:04:26;12.45;;;5.95;;
23171;SDS011;11754;42.664;23.594;2022-11-30T13:09:46;11.27;;;6.03;;
23171;SDS011;11754;42.664;23.594;2022-11-30T13:12:18;41.00;;;18.92;;
23171;SDS011;11754;42.664;23.594;2022-11-30T13:14:50;21.95;;;11.85;;
23171;SDS011;11754;42.664;23.594;2022-11-30T13:17:22;10.20;;;5.28;;
23171;SDS011;11754;42.664;23.594;2022-11-30T13:19:53;8.35;;;5.18;;
23171;SDS011;11754;42.664;23.594;2022-11-30T13:24:59;5.75;;;3.13;;
23171;SDS011;11754;42.664;23.594;2022-11-30T13:28:00;4.45;;;3.20;;
23171;SDS011;11754;42.664;23.594;2022-11-30T13:41:41;7.80;;;4.57;;
23171;SDS011;11754;42.664;23.594;2022-11-30T13:46:53;15.88;;;8.35;;
23171;SDS011;11754;42.664;23.594;2022-11-30T13:49:22;34.60;;;15.85;;
23171;SDS011;11754;42.664;23.594;2022-11-30T13:51:52;16.35;;;8.55;;
23171;SDS011;11754;42.664;23.594;2022-11-30T13:59:53;5.50;;;3.03;;
23171;SDS011;11754;42.664;23.594;2022-11-30T14:07:45;5.43;;;2.92;;
23171;SDS011;11754;42.664;23.594;2022-11-30T14:10:26;5.55;;;3.72;;
23171;SDS011;11754;42.664;23.594;2022-11-30T14:23:18;12.27;;;8.07;;
23171;SDS011;11754;42.664;23.594;2022-11-30T14:25:50;10.95;;;6.70;;
23171;SDS011;11754;42.664;23.594;2022-11-30T14:28:24;11.80;;;8.30;;
23171;SDS011;11754;42.664;23.594;2022-11-30T14:30:56;12.43;;;5.75;;
23171;SDS011;11754;42.664;23.594;2022-11-30T14:33:25;13.77;;;6.82;;
23171;SDS011;11754;42.664;23.594;2022-11-30T14:36:14;14.82;;;6.65;;
23171;SDS011;11754;42.664;23.594;2022-11-30T14:38:41;10.77;;;5.63;;
23171;SDS011;11754;42.664;23.594;2022-11-30T14:41:29;13.15;;;5.95;;
23171;SDS011;11754;42.664;23.594;2022-11-30T14:43:57;9.88;;;4.03;;
23171;SDS011;11754;42.664;23.594;2022-11-30T14:46:24;8.77;;;4.72;;
23171;SDS011;11754;42.664;23.594;2022-11-30T14:51:47;21.35;;;9.52;;
23171;SDS011;11754;42.664;23.594;2022-11-30T14:54:22;19.23;;;8.25;;
23171;SDS011;11754;42.664;23.594;2022-11-30T14:56:58;12.73;;;6.50;;
23171;SDS011;11754;42.664;23.594;2022-11-30T14:59:34;24.13;;;9.90;;
23171;SDS011;11754;42.664;23.594;2022-11-30T15:02:22;56.15;;;23.00;;
23171;SDS011;11754;42.664;23.594;2022-11-30T15:05:01;51.72;;;23.55;;
23171;SDS011;11754;42.664;23.594;2022-11-30T15:07:31;30.98;;;14.07;;
23171;SDS011;11754;42.664;23.594;2022-11-30T15:10:08;10.98;;;6.30;;
23171;SDS011;11754;42.664;23.594;2022-11-30T15:12:43;14.35;;;7.22;;
23171;SDS011;11754;42.664;23.594;2022-11-30T15:18:15;14.23;;;6.90;;
23171;SDS011;11754;42.664;23.594;2022-11-30T15:20:43;16.77;;;8.95;;
23171;SDS011;11754;42.664;23.594;2022-11-30T15:23:13;13.05;;;7.18;;
23171;SDS011;11754;42.664;23.594;2022-11-30T15:25:44;21.23;;;10.85;;
23171;SDS011;11754;42.664;23.594;2022-11-30T15:28:11;16.83;;;8.30;;
23171;SDS011;11754;42.664;23.594;2022-11-30T15:30:41;15.68;;;7.35;;
23171;SDS011;11754;42.664;23.594;2022-11-30T15:33:17;17.83;;;9.75;;
23171;SDS011;11754;42.664;23.594;2022-11-30T15:35:45;10.23;;;5.68;;
23171;SDS011;11754;42.664;23.594;2022-11-30T15:38:15;12.30;;;6.60;;
23171;SDS011;11754;42.664;23.594;2022-11-30T15:40:43;15.32;;;6.63;;
23171;SDS011;11754;42.664;23.594;2022-11-30T15:43:17;16.80;;;5.80;;
23171;SDS011;11754;42.664;23.594;2022-11-30T15:45:56;11.98;;;5.82;;
23171;SDS011;11754;42.664;23.594;2022-11-30T15:48:29;12.18;;;5.80;;
23171;SDS011;11754;42.664;23.594;2022-11-30T15:50:57;17.60;;;9.73;;
23171;SDS011;11754;42.664;23.594;2022-11-30T15:53:25;13.30;;;6.35;;
23171;SDS011;11754;42.664;23.594;2022-11-30T15:55:54;12.15;;;6.57;;
23171;SDS011;11754;42.664;23.594;2022-11-30T15:58:39;18.40;;;10.23;;
23171;SDS011;11754;42.664;23.594;2022-11-30T16:01:19;11.65;;;6.82;;
23171;SDS011;11754;42.664;23.594;2022-11-30T16:06:24;15.75;;;8.55;;
23171;SDS011;11754;42.664;23.594;2022-11-30T16:08:51;11.38;;;5.90;;
23171;SDS011;11754;42.664;23.594;2022-11-30T16:11:18;16.92;;;8.48;;
23171;SDS011;11754;42.664;23.594;2022-11-30T16:13:44;21.10;;;9.75;;
23171;SDS011;11754;42.664;23.594;2022-11-30T16:16:21;13.43;;;7.65;;
23171;SDS011;11754;42.664;23.594;2022-11-30T16:18:52;24.25;;;10.43;;
23171;SDS011;11754;42.664;23.594;2022-11-30T16:21:18;22.48;;;13.15;;
23171;SDS011;11754;42.664;23.594;2022-11-30T16:23:44;21.35;;;12.10;;
23171;SDS011;11754;42.664;23.594;2022-11-30T16:26:11;32.08;;;14.32;;
23171;SDS011;11754;42.664;23.594;2022-11-30T16:28:38;29.58;;;14.20;;
23171;SDS011;11754;42.664;23.594;2022-11-30T16:31:04;20.15;;;8.90;;
23171;SDS011;11754;42.664;23.594;2022-11-30T16:33:31;13.57;;;7.30;;
23171;SDS011;11754;42.664;23.594;2022-11-30T16:36:02;12.73;;;7.38;;
23171;SDS011;11754;42.664;23.594;2022-11-30T16:38:31;18.83;;;8.95;;
23171;SDS011;11754;42.664;23.594;2022-11-30T16:43:46;13.93;;;7.82;;
23171;SDS011;11754;42.664;23.594;2022-11-30T16:46:14;12.18;;;6.57;;
23171;SDS011;11754;42.664;23.594;2022-11-30T16:48:59;11.77;;;7.20;;
23171;SDS011;11754;42.664;23.594;2022-11-30T16:51:26;14.27;;;7.90;;
23171;SDS011;11754;42.664;23.594;2022-11-30T16:53:53;14.05;;;9.55;;
23171;SDS011;11754;42.664;23.594;2022-11-30T16:56:19;12.57;;;7.63;;
23171;SDS011;11754;42.664;23.594;2022-11-30T16:58:45;14.38;;;7.30;;
23171;SDS011;11754;42.664;23.594;2022-11-30T17:01:31;14.73;;;8.57;;
23171;SDS011;11754;42.664;23.594;2022-11-30T17:04:20;14.00;;;7.82;;
23171;SDS011;11754;42.664;23.594;2022-11-30T17:06:48;14.45;;;6.32;;
23171;SDS011;11754;42.664;23.594;2022-11-30T17:09:14;13.07;;;7.10;;
23171;SDS011;11754;42.664;23.594;2022-11-30T17:11:40;13.68;;;7.00;;